sensor_id;sensor_type;location;lat;lon;timestamp;pressure;altitude;pressure_sealevel;temperature;humidity
43125;BME280;49182;50.788;7.318;2023-02-12T00:01:35;103060.59;;;5.29;98.56
43125;BME280;49182;50.788;7.318;2023-02-12T00:04:01;103054.47;;;5.31;98.46
43125;BME280;49182;50.788;7.318;2023-02-12T00:06:28;103057.16;;;5.27;98.65
43125;BME280;49182;50.788;7.318;2023-02-12T00:08:55;103047.81;;;5.17;99.41
43125;BME280;49182;50.788;7.318;2023-02-12T00:11:24;103065.91;;;5.26;99.29
43125;BME280;49182;50.788;7.318;2023-02-12T00:13:52;103044.34;;;5.17;99.49
43125;BME280;49182;50.788;7.318;2023-02-12T00:16:22;103053.53;;;5.32;99.25
43125;BME280;49182;50.788;7.318;2023-02-12T00:18:51;103064.06;;;5.30;99.47
43125;BME280;49182;50.788;7.318;2023-02-12T00:21:18;103058.84;;;5.30;98.76
43125;BME280;49182;50.788;7.318;2023-02-12T00:23:45;103009.78;;;5.03;98.82
43125;BME280;49182;50.788;7.318;2023-02-12T00:26:14;103057.09;;;5.31;98.84
43125;BME280;49182;50.788;7.318;2023-02-12T00:28:45;102977.09;;;4.85;98.68
43125;BME280;49182;50.788;7.318;2023-02-12T00:31:14;103041.59;;;5.21;98.53
43125;BME280;49182;50.788;7.318;2023-02-12T00:33:42;103057.09;;;5.31;98.59
43125;BME280;49182;50.788;7.318;2023-02-12T00:36:13;103053.63;;;5.28;98.60
43125;BME280;49182;50.788;7.318;2023-02-12T00:38:40;103026.22;;;5.09;98.69
43125;BME280;49182;50.788;7.318;2023-02-12T00:41:09;103052.91;;;5.23;98.90
43125;BME280;49182;50.788;7.318;2023-02-12T00:43:36;103059.03;;;5.22;99.79
43125;BME280;49182;50.788;7.318;2023-02-12T00:46:03;103057.28;;;5.23;99.51
43125;BME280;49182;50.788;7.318;2023-02-12T00:48:30;103061.66;;;5.22;99.59
43125;BME280;49182;50.788;7.318;2023-02-12T00:50:58;103039.88;;;5.20;99.65
43125;BME280;49182;50.788;7.318;2023-02-12T00:53:27;103060.66;;;5.26;99.46
43125;BME280;49182;50.788;7.318;2023-02-12T00:55:54;103058.94;;;5.25;99.54
43125;BME280;49182;50.788;7.318;2023-02-12T00:58:22;103047.53;;;5.28;99.53
43125;BME280;49182;50.788;7.318;2023-02-12T01:00:49;103053.63;;;5.28;99.41
43125;BME280;49182;50.788;7.318;2023-02-12T01:03:15;103053.59;;;5.30;99.58
43125;BME280;49182;50.788;7.318;2023-02-12T01:05:42;103057.88;;;5.33;98.91
43125;BME280;49182;50.788;7.318;2023-02-12T01:08:12;103061.22;;;5.38;99.05
43125;BME280;49182;50.788;7.318;2023-02-12T01:10:41;103061.22;;;5.38;98.28
43125;BME280;49182;50.788;7.318;2023-02-12T01:13:10;103069.16;;;5.36;98.50
43125;BME280;49182;50.788;7.318;2023-02-12T01:15:37;103067.50;;;5.32;98.13
43125;BME280;49182;50.788;7.318;2023-02-12T01:18:05;103053.53;;;5.32;98.37
43125;BME280;49182;50.788;7.318;2023-02-12T01:20:31;103062.31;;;5.31;98.35
43125;BME280;49182;50.788;7.318;2023-02-12T01:22:58;103041.88;;;5.11;98.79
43125;BME280;49182;50.788;7.318;2023-02-12T01:25:27;103066.88;;;5.24;99.23
43125;BME280;49182;50.788;7.318;2023-02-12T01:27:54;103068.56;;;5.25;99.41
43125;BME280;49182;50.788;7.318;2023-02-12T01:30:21;103068.50;;;5.28;99.59
43125;BME280;49182;50.788;7.318;2023-02-12T01:32:49;103071.06;;;5.29;99.37
43125;BME280;49182;50.788;7.318;2023-02-12T01:35:16;103072.84;;;5.29;99.92
43125;BME280;49182;50.788;7.318;2023-02-12T01:37:43;103070.22;;;5.29;99.55
43125;BME280;49182;50.788;7.318;2023-02-12T01:40:14;103052.91;;;5.23;99.62
43125;BME280;49182;50.788;7.318;2023-02-12T01:42:45;103060.34;;;5.39;98.63
43125;BME280;49182;50.788;7.318;2023-02-12T01:48:14;103062.06;;;5.40;98.31
43125;BME280;49182;50.788;7.318;2023-02-12T01:50:43;103064.00;;;5.32;98.79
43125;BME280;49182;50.788;7.318;2023-02-12T01:53:12;103054.50;;;5.29;99.17
43125;BME280;49182;50.788;7.318;2023-02-12T01:55:41;103059.81;;;5.26;99.33
43125;BME280;49182;50.788;7.318;2023-02-12T01:58:09;103048.53;;;5.24;99.37
43125;BME280;49182;50.788;7.318;2023-02-12T02:00:36;103048.53;;;5.24;99.65
43125;BME280;49182;50.788;7.318;2023-02-12T02:03:03;103055.38;;;5.28;99.47
43125;BME280;49182;50.788;7.318;2023-02-12T02:05:34;103047.50;;;5.29;99.36
43125;BME280;49182;50.788;7.318;2023-02-12T02:08:04;103049.13;;;5.34;99.71
43125;BME280;49182;50.788;7.318;2023-02-12T02:10:31;103044.00;;;5.31;99.24
43125;BME280;49182;50.788;7.318;2023-02-12T02:12:58;103049.25;;;5.29;99.62
43125;BME280;49182;50.788;7.318;2023-02-12T02:15:29;103044.00;;;5.31;99.96
43125;BME280;49182;50.788;7.318;2023-02-12T02:18:00;103017.25;;;5.18;98.73
43125;BME280;49182;50.788;7.318;2023-02-12T02:24:09;103035.28;;;5.30;99.03
43125;BME280;49182;50.788;7.318;2023-02-12T02:27:15;103036.19;;;5.27;99.10
43125;BME280;49182;50.788;7.318;2023-02-12T02:33:09;103036.94;;;5.33;99.08
43125;BME280;49182;50.788;7.318;2023-02-12T02:35:40;103015.59;;;5.14;99.06
43125;BME280;49182;50.788;7.318;2023-02-12T02:38:19;103036.38;;;5.20;99.53
43125;BME280;49182;50.788;7.318;2023-02-12T02:40:53;103030.34;;;5.18;100.00
43125;BME280;49182;50.788;7.318;2023-02-12T02:43:27;103028.59;;;5.18;100.00
43125;BME280;49182;50.788;7.318;2023-02-12T02:45:58;103034.66;;;5.19;100.00
43125;BME280;49182;50.788;7.318;2023-02-12T02:48:32;103011.44;;;5.07;100.00
43125;BME280;49182;50.788;7.318;2023-02-12T02:51:03;103031.16;;;5.20;100.00
43125;BME280;49182;50.788;7.318;2023-02-12T02:53:34;103031.97;;;5.22;100.00
43125;BME280;49182;50.788;7.318;2023-02-12T02:56:04;103029.53;;;5.16;99.90
43125;BME280;49182;50.788;7.318;2023-02-12T02:58:35;103029.50;;;5.17;100.00
43125;BME280;49182;50.788;7.318;2023-02-12T03:01:06;103035.53;;;5.19;100.00
43125;BME280;49182;50.788;7.318;2023-02-12T03:03:41;103028.50;;;5.21;100.00
43125;BME280;49182;50.788;7.318;2023-02-12T03:06:14;103035.38;;;5.25;100.00
43125;BME280;49182;50.788;7.318;2023-02-12T03:08:46;103028.31;;;5.29;99.63
43125;BME280;49182;50.788;7.318;2023-02-12T03:11:15;103020.66;;;5.21;99.37
43125;BME280;49182;50.788;7.318;2023-02-12T03:13:46;103028.53;;;5.20;99.86
43125;BME280;49182;50.788;7.318;2023-02-12T03:16:17;103023.41;;;5.17;100.00
43125;BME280;49182;50.788;7.318;2023-02-12T03:18:53;103023.22;;;5.23;100.00
43125;BME280;49182;50.788;7.318;2023-02-12T03:21:24;103024.00;;;5.26;99.63
43125;BME280;49182;50.788;7.318;2023-02-12T03:23:57;103018.75;;;5.26;99.72
43125;BME280;49182;50.788;7.318;2023-02-12T03:26:33;103032.75;;;5.25;99.33
43125;BME280;49182;50.788;7.318;2023-02-12T03:29:03;103031.94;;;5.23;99.66
43125;BME280;49182;50.788;7.318;2023-02-12T03:31:36;103029.34;;;5.23;99.28
43125;BME280;49182;50.788;7.318;2023-02-12T03:34:10;103027.59;;;5.22;100.00
43125;BME280;49182;50.788;7.318;2023-02-12T03:36:47;103005.16;;;5.12;99.86
43125;BME280;49182;50.788;7.318;2023-02-12T03:39:21;103025.81;;;5.24;98.96
43125;BME280;49182;50.788;7.318;2023-02-12T03:42:04;103020.69;;;5.20;99.64
43125;BME280;49182;50.788;7.318;2023-02-12T03:44:45;102969.97;;;4.92;99.42
43125;BME280;49182;50.788;7.318;2023-02-12T03:47:19;103023.22;;;5.23;99.44
43125;BME280;49182;50.788;7.318;2023-02-12T03:49:52;102992.38;;;5.02;100.00
43125;BME280;49182;50.788;7.318;2023-02-12T03:52:21;103025.91;;;5.20;99.39
43125;BME280;49182;50.788;7.318;2023-02-12T03:54:48;103026.81;;;5.19;99.78
43125;BME280;49182;50.788;7.318;2023-02-12T03:57:18;103032.06;;;5.19;100.00
43125;BME280;49182;50.788;7.318;2023-02-12T03:59:46;103024.16;;;5.20;99.90
43125;BME280;49182;50.788;7.318;2023-02-12T04:02:14;103037.22;;;5.22;99.48
43125;BME280;49182;50.788;7.318;2023-02-12T04:04:42;103037.13;;;5.25;99.75
43125;BME280;49182;50.788;7.318;2023-02-12T04:07:12;103042.38;;;5.25;99.36
43125;BME280;49182;50.788;7.318;2023-02-12T04:09:39;103018.25;;;5.12;99.34
43125;BME280;49182;50.788;7.318;2023-02-12T04:12:19;103040.72;;;5.21;99.61
43125;BME280;49182;50.788;7.318;2023-02-12T04:14:54;103039.88;;;5.20;99.51
43125;BME280;49182;50.788;7.318;2023-02-12T04:17:34;103044.22;;;5.21;100.00
43125;BME280;49182;50.788;7.318;2023-02-12T04:20:09;103049.47;;;5.20;99.93
43125;BME280;49182;50.788;7.318;2023-02-12T04:22:45;103052.09;;;5.20;99.82
43125;BME280;49182;50.788;7.318;2023-02-12T04:25:21;103055.63;;;5.19;100.00
43125;BME280;49182;50.788;7.318;2023-02-12T04:27:59;103055.59;;;5.20;100.00
43125;BME280;49182;50.788;7.318;2023-02-12T04:30:34;103019.50;;;4.99;99.55
43125;BME280;49182;50.788;7.318;2023-02-12T04:33:04;103049.63;;;5.15;100.00
43125;BME280;49182;50.788;7.318;2023-02-12T04:35:38;103055.63;;;5.19;99.42
43125;BME280;49182;50.788;7.318;2023-02-12T04:38:12;103056.38;;;5.24;99.05
43125;BME280;49182;50.788;7.318;2023-02-12T04:40:41;103057.28;;;5.23;98.68
43125;BME280;49182;50.788;7.318;2023-02-12T04:43:08;103049.59;;;5.17;99.40
43125;BME280;49182;50.788;7.318;2023-02-12T04:45:36;103057.31;;;5.21;99.13
43125;BME280;49182;50.788;7.318;2023-02-12T04:48:04;103060.75;;;5.23;98.70
43125;BME280;49182;50.788;7.318;2023-02-12T04:50:37;103011.75;;;4.95;99.40
43125;BME280;49182;50.788;7.318;2023-02-12T04:53:04;103061.78;;;5.18;98.67
43125;BME280;49182;50.788;7.318;2023-02-12T04:55:32;103060.09;;;5.15;99.36
43125;BME280;49182;50.788;7.318;2023-02-12T04:57:59;103003.47;;;4.77;99.34
43125;BME280;49182;50.788;7.318;2023-02-12T05:00:25;103065.31;;;5.15;99.58
43125;BME280;49182;50.788;7.318;2023-02-12T05:02:52;103065.31;;;5.15;99.18
43125;BME280;49182;50.788;7.318;2023-02-12T05:05:19;103061.84;;;5.15;99.43
43125;BME280;49182;50.788;7.318;2023-02-12T05:07:46;103062.69;;;5.17;99.84
43125;BME280;49182;50.788;7.318;2023-02-12T05:10:13;103010.09;;;4.91;99.68
43125;BME280;49182;50.788;7.318;2023-02-12T05:12:41;103045.22;;;5.17;99.78
43125;BME280;49182;50.788;7.318;2023-02-12T05:15:08;103048.72;;;5.16;99.28
43125;BME280;49182;50.788;7.318;2023-02-12T05:17:35;103054.72;;;5.20;98.98
43125;BME280;49182;50.788;7.318;2023-02-12T05:20:02;103056.47;;;5.19;98.74
43125;BME280;49182;50.788;7.318;2023-02-12T05:22:29;103048.84;;;5.12;99.20
43125;BME280;49182;50.788;7.318;2023-02-12T05:24:55;103053.97;;;5.16;98.84
43125;BME280;49182;50.788;7.318;2023-02-12T05:27:22;103052.22;;;5.15;99.61
43125;BME280;49182;50.788;7.318;2023-02-12T05:29:50;103055.72;;;5.16;99.08
43125;BME280;49182;50.788;7.318;2023-02-12T05:32:17;103054.03;;;5.13;98.85
43125;BME280;49182;50.788;7.318;2023-02-12T05:34:46;103048.75;;;5.15;98.78
43125;BME280;49182;50.788;7.318;2023-02-12T05:37:14;103017.03;;;4.93;99.55
43125;BME280;49182;50.788;7.318;2023-02-12T05:39:41;103047.13;;;5.11;99.69
43125;BME280;49182;50.788;7.318;2023-02-12T05:42:09;103059.25;;;5.13;99.84
43125;BME280;49182;50.788;7.318;2023-02-12T05:44:37;103028.41;;;4.92;99.70
43125;BME280;49182;50.788;7.318;2023-02-12T05:47:06;103056.72;;;5.10;99.52
43125;BME280;49182;50.788;7.318;2023-02-12T05:49:32;103063.78;;;5.07;100.00
43125;BME280;49182;50.788;7.318;2023-02-12T05:51:59;103071.56;;;5.11;100.00
43125;BME280;49182;50.788;7.318;2023-02-12T05:54:28;103078.47;;;5.12;100.00
43125;BME280;49182;50.788;7.318;2023-02-12T05:56:55;103078.41;;;5.15;100.00
43125;BME280;49182;50.788;7.318;2023-02-12T05:59:22;103082.72;;;5.18;99.64
43125;BME280;49182;50.788;7.318;2023-02-12T06:01:50;103071.31;;;5.19;99.62
43125;BME280;49182;50.788;7.318;2023-02-12T06:04:20;103074.81;;;5.19;100.00
43125;BME280;49182;50.788;7.318;2023-02-12T06:06:47;103074.81;;;5.19;100.00
43125;BME280;49182;50.788;7.318;2023-02-12T06:09:14;103074.81;;;5.19;100.00
43125;BME280;49182;50.788;7.318;2023-02-12T06:11:41;103069.72;;;5.13;100.00
43125;BME280;49182;50.788;7.318;2023-02-12T06:14:10;103081.75;;;5.22;100.00
43125;BME280;49182;50.788;7.318;2023-02-12T06:16:38;103081.63;;;5.26;100.00
43125;BME280;49182;50.788;7.318;2023-02-12T06:19:05;103077.22;;;5.28;99.56
43125;BME280;49182;50.788;7.318;2023-02-12T06:21:33;103081.59;;;5.28;99.41
43125;BME280;49182;50.788;7.318;2023-02-12T06:24:00;103079.78;;;5.30;98.58
43125;BME280;49182;50.788;7.318;2023-02-12T06:26:27;103079.72;;;5.32;98.49
43125;BME280;49182;50.788;7.318;2023-02-12T06:28:54;103094.66;;;5.29;98.44
43125;BME280;49182;50.788;7.318;2023-02-12T06:31:23;103094.75;;;5.25;99.53
43125;BME280;49182;50.788;7.318;2023-02-12T06:33:52;103081.88;;;5.17;100.00
43125;BME280;49182;50.788;7.318;2023-02-12T06:36:20;103101.88;;;5.20;100.00
43125;BME280;49182;50.788;7.318;2023-02-12T06:38:49;103097.59;;;5.17;100.00
43125;BME280;49182;50.788;7.318;2023-02-12T06:41:16;103101.00;;;5.19;100.00
43125;BME280;49182;50.788;7.318;2023-02-12T06:43:43;103098.38;;;5.19;100.00
43125;BME280;49182;50.788;7.318;2023-02-12T06:46:10;103085.53;;;5.10;100.00
43125;BME280;49182;50.788;7.318;2023-02-12T06:48:37;103092.41;;;5.14;100.00
43125;BME280;49182;50.788;7.318;2023-02-12T06:51:05;103067.38;;;5.04;100.00
43125;BME280;49182;50.788;7.318;2023-02-12T06:53:33;103108.63;;;5.28;100.00
43125;BME280;49182;50.788;7.318;2023-02-12T06:56:02;103115.47;;;5.34;99.51
43125;BME280;49182;50.788;7.318;2023-02-12T06:58:29;103107.66;;;5.33;99.69
43125;BME280;49182;50.788;7.318;2023-02-12T07:00:56;103081.94;;;5.14;99.80
43125;BME280;49182;50.788;7.318;2023-02-12T07:03:23;103114.66;;;5.32;100.00
43125;BME280;49182;50.788;7.318;2023-02-12T07:05:50;103111.16;;;5.32;99.89
43125;BME280;49182;50.788;7.318;2023-02-12T07:08:17;103120.75;;;5.33;99.88
43125;BME280;49182;50.788;7.318;2023-02-12T07:10:47;103114.66;;;5.32;100.00
43125;BME280;49182;50.788;7.318;2023-02-12T07:13:15;103108.69;;;5.25;100.00
43125;BME280;49182;50.788;7.318;2023-02-12T07:15:41;103126.81;;;5.35;100.00
43125;BME280;49182;50.788;7.318;2023-02-12T07:18:08;103122.44;;;5.35;100.00
43125;BME280;49182;50.788;7.318;2023-02-12T07:20:35;103128.53;;;5.36;100.00
43125;BME280;49182;50.788;7.318;2023-02-12T07:23:01;103130.28;;;5.37;100.00
43125;BME280;49182;50.788;7.318;2023-02-12T07:25:28;103107.84;;;5.25;100.00
43125;BME280;49182;50.788;7.318;2023-02-12T07:27:55;103135.38;;;5.41;100.00
43125;BME280;49182;50.788;7.318;2023-02-12T07:30:22;103139.50;;;5.50;100.00
43125;BME280;49182;50.788;7.318;2023-02-12T07:32:51;103124.88;;;5.43;100.00
43125;BME280;49182;50.788;7.318;2023-02-12T07:35:17;103135.13;;;5.50;100.00
43125;BME280;49182;50.788;7.318;2023-02-12T07:37:44;103135.09;;;5.52;100.00
43125;BME280;49182;50.788;7.318;2023-02-12T07:40:11;103119.47;;;5.49;100.00
43125;BME280;49182;50.788;7.318;2023-02-12T07:42:37;103132.31;;;5.58;100.00
43125;BME280;49182;50.788;7.318;2023-02-12T07:45:06;103131.41;;;5.59;100.00
43125;BME280;49182;50.788;7.318;2023-02-12T07:47:34;103132.28;;;5.59;100.00
43125;BME280;49182;50.788;7.318;2023-02-12T07:50:00;103133.91;;;5.63;100.00
43125;BME280;49182;50.788;7.318;2023-02-12T07:52:27;103097.84;;;5.41;100.00
43125;BME280;49182;50.788;7.318;2023-02-12T07:54:54;103135.50;;;5.69;100.00
43125;BME280;49182;50.788;7.318;2023-02-12T07:57:20;103135.50;;;5.69;100.00
43125;BME280;49182;50.788;7.318;2023-02-12T07:59:47;103143.19;;;5.75;100.00
43125;BME280;49182;50.788;7.318;2023-02-12T08:02:13;103145.66;;;5.81;100.00
43125;BME280;49182;50.788;7.318;2023-02-12T08:04:41;103146.44;;;5.85;100.00
43125;BME280;49182;50.788;7.318;2023-02-12T08:07:08;103151.66;;;5.86;100.00
43125;BME280;49182;50.788;7.318;2023-02-12T08:09:35;103138.69;;;5.80;100.00
43125;BME280;49182;50.788;7.318;2023-02-12T08:12:01;103142.84;;;5.90;100.00
43125;BME280;49182;50.788;7.318;2023-02-12T08:14:28;103085.94;;;5.61;100.00
43125;BME280;49182;50.788;7.318;2023-02-12T08:16:55;103113.31;;;5.82;100.00
43125;BME280;49182;50.788;7.318;2023-02-12T08:19:22;103140.59;;;6.07;100.00
43125;BME280;49182;50.788;7.318;2023-02-12T08:21:55;103142.16;;;6.15;100.00
43125;BME280;49182;50.788;7.318;2023-02-12T08:24:22;103150.78;;;6.18;100.00
43125;BME280;49182;50.788;7.318;2023-02-12T08:26:49;103145.28;;;6.27;100.00
43125;BME280;49182;50.788;7.318;2023-02-12T08:29:17;103144.31;;;6.30;100.00
43125;BME280;49182;50.788;7.318;2023-02-12T08:31:46;103147.63;;;6.36;100.00
43125;BME280;49182;50.788;7.318;2023-02-12T08:34:16;103143.94;;;6.42;100.00
43125;BME280;49182;50.788;7.318;2023-02-12T08:36:44;103146.34;;;6.49;100.00
43125;BME280;49182;50.788;7.318;2023-02-12T08:39:13;103140.22;;;6.50;100.00
43125;BME280;49182;50.788;7.318;2023-02-12T08:41:40;103145.09;;;6.63;100.00
43125;BME280;49182;50.788;7.318;2023-02-12T08:44:07;103135.75;;;6.54;100.00
43125;BME280;49182;50.788;7.318;2023-02-12T08:46:35;103155.22;;;6.75;100.00
43125;BME280;49182;50.788;7.318;2023-02-12T08:49:04;103154.19;;;6.79;99.38
43125;BME280;49182;50.788;7.318;2023-02-12T08:51:33;103167.22;;;6.83;99.53
43125;BME280;49182;50.788;7.318;2023-02-12T08:54:02;103165.38;;;6.85;99.74
43125;BME280;49182;50.788;7.318;2023-02-12T08:56:32;103164.34;;;6.91;99.61
43125;BME280;49182;50.788;7.318;2023-02-12T08:59:00;103164.16;;;6.97;99.35
43125;BME280;49182;50.788;7.318;2023-02-12T09:01:30;103165.66;;;7.04;99.08
43125;BME280;49182;50.788;7.318;2023-02-12T09:03:57;103163.75;;;7.09;98.92
43125;BME280;49182;50.788;7.318;2023-02-12T09:06:24;103162.63;;;7.16;97.96
43125;BME280;49182;50.788;7.318;2023-02-12T09:08:52;103160.81;;;7.18;98.37
43125;BME280;49182;50.788;7.318;2023-02-12T09:11:20;103155.38;;;7.24;98.17
43125;BME280;49182;50.788;7.318;2023-02-12T09:13:49;103144.91;;;7.23;97.78
43125;BME280;49182;50.788;7.318;2023-02-12T09:16:15;103161.00;;;7.40;97.65
43125;BME280;49182;50.788;7.318;2023-02-12T09:18:42;103168.72;;;7.45;96.75
43125;BME280;49182;50.788;7.318;2023-02-12T09:21:12;103166.69;;;7.53;96.77
43125;BME280;49182;50.788;7.318;2023-02-12T09:23:39;103178.81;;;7.57;97.25
43125;BME280;49182;50.788;7.318;2023-02-12T09:26:07;103169.75;;;7.65;96.38
43125;BME280;49182;50.788;7.318;2023-02-12T09:28:34;103167.94;;;7.67;96.91
43125;BME280;49182;50.788;7.318;2023-02-12T09:31:05;103123.00;;;7.49;96.66
43125;BME280;49182;50.788;7.318;2023-02-12T09:33:32;103172.75;;;7.80;96.47
43125;BME280;49182;50.788;7.318;2023-02-12T09:36:00;103160.25;;;7.86;96.83
43125;BME280;49182;50.788;7.318;2023-02-12T09:38:27;103158.22;;;7.94;96.20
43125;BME280;49182;50.788;7.318;2023-02-12T09:41:07;103165.84;;;8.02;96.00
43125;BME280;49182;50.788;7.318;2023-02-12T09:43:41;103165.63;;;8.08;95.77
43125;BME280;49182;50.788;7.318;2023-02-12T09:46:15;103157.56;;;8.12;95.64
43125;BME280;49182;50.788;7.318;2023-02-12T09:48:53;103156.41;;;8.20;95.47
43125;BME280;49182;50.788;7.318;2023-02-12T09:51:22;103161.38;;;8.27;95.43
43125;BME280;49182;50.788;7.318;2023-02-12T09:53:59;103162.16;;;8.31;95.28
43125;BME280;49182;50.788;7.318;2023-02-12T09:56:27;103168.94;;;8.38;95.09
43125;BME280;49182;50.788;7.318;2023-02-12T09:58:57;103166.03;;;8.45;95.16
43125;BME280;49182;50.788;7.318;2023-02-12T10:01:27;103163.03;;;8.55;94.58
43125;BME280;49182;50.788;7.318;2023-02-12T10:03:54;103162.78;;;8.61;94.38
43125;BME280;49182;50.788;7.318;2023-02-12T10:06:24;103147.94;;;8.58;94.22
43125;BME280;49182;50.788;7.318;2023-02-12T10:11:55;103165.03;;;8.48;91.35
43125;BME280;49182;50.788;7.318;2023-02-12T10:14:30;103168.06;;;8.61;92.42
43125;BME280;49182;50.788;7.318;2023-02-12T10:17:02;103162.31;;;8.73;92.97
43125;BME280;49182;50.788;7.318;2023-02-12T10:19:39;103164.47;;;8.85;92.72
43125;BME280;49182;50.788;7.318;2023-02-12T10:22:12;103171.88;;;8.97;92.29
43125;BME280;49182;50.788;7.318;2023-02-12T10:24:56;103173.47;;;9.01;90.99
43125;BME280;49182;50.788;7.318;2023-02-12T10:27:35;103171.53;;;9.06;90.56
43125;BME280;49182;50.788;7.318;2023-02-12T10:30:03;103168.44;;;9.17;90.84
43125;BME280;49182;50.788;7.318;2023-02-12T10:32:40;103166.88;;;9.33;90.31
43125;BME280;49182;50.788;7.318;2023-02-12T10:35:11;103169.22;;;9.41;90.22
43125;BME280;49182;50.788;7.318;2023-02-12T10:37:39;103170.41;;;9.54;88.75
43125;BME280;49182;50.788;7.318;2023-02-12T10:40:13;103168.44;;;9.59;88.61
43125;BME280;49182;50.788;7.318;2023-02-12T10:42:42;103159.47;;;9.63;87.76
43125;BME280;49182;50.788;7.318;2023-02-12T10:45:11;103165.22;;;9.72;87.65
43125;BME280;49182;50.788;7.318;2023-02-12T10:47:38;103152.72;;;9.76;82.77
43125;BME280;49182;50.788;7.318;2023-02-12T10:50:12;103159.19;;;9.89;84.94
43125;BME280;49182;50.788;7.318;2023-02-12T10:52:43;103153.44;;;10.00;85.58
43125;BME280;49182;50.788;7.318;2023-02-12T10:55:23;103149.53;;;10.08;85.19
43125;BME280;49182;50.788;7.318;2023-02-12T10:57:50;103147.44;;;10.17;84.17
43125;BME280;49182;50.788;7.318;2023-02-12T11:00:21;103148.97;;;10.22;83.61
43125;BME280;49182;50.788;7.318;2023-02-12T11:02:58;103148.47;;;10.33;83.83
43125;BME280;49182;50.788;7.318;2023-02-12T11:05:28;103148.91;;;10.42;83.31
43125;BME280;49182;50.788;7.318;2023-02-12T11:07:54;103145.03;;;10.49;80.08
43125;BME280;49182;50.788;7.318;2023-02-12T11:10:24;103138.06;;;10.48;80.49
43125;BME280;49182;50.788;7.318;2023-02-12T11:12:52;103140.69;;;10.48;81.39
43125;BME280;49182;50.788;7.318;2023-02-12T11:15:19;103138.06;;;10.48;81.63
43125;BME280;49182;50.788;7.318;2023-02-12T11:17:53;103141.34;;;10.53;81.48
43125;BME280;49182;50.788;7.318;2023-02-12T11:20:24;103135.41;;;10.48;80.95
43125;BME280;49182;50.788;7.318;2023-02-12T11:22:53;103129.13;;;10.51;80.71
43125;BME280;49182;50.788;7.318;2023-02-12T11:25:21;103133.97;;;10.60;80.56
43125;BME280;49182;50.788;7.318;2023-02-12T11:27:58;103128.13;;;10.72;81.31
43125;BME280;49182;50.788;7.318;2023-02-12T11:30:25;103128.75;;;10.77;79.34
43125;BME280;49182;50.788;7.318;2023-02-12T11:32:51;103130.28;;;10.81;79.86
43125;BME280;49182;50.788;7.318;2023-02-12T11:35:18;103127.34;;;10.87;79.58
43125;BME280;49182;50.788;7.318;2023-02-12T11:37:45;103117.22;;;10.97;79.95
43125;BME280;49182;50.788;7.318;2023-02-12T11:40:15;103116.34;;;10.97;78.12
43125;BME280;49182;50.788;7.318;2023-02-12T11:42:46;103114.41;;;11.00;77.12
43125;BME280;49182;50.788;7.318;2023-02-12T11:45:15;103117.91;;;11.18;76.51
43125;BME280;49182;50.788;7.318;2023-02-12T11:47:42;103119.00;;;11.31;75.04
43125;BME280;49182;50.788;7.318;2023-02-12T11:50:17;103114.03;;;11.25;76.44
43125;BME280;49182;50.788;7.318;2023-02-12T11:52:47;103116.59;;;11.26;74.98
43125;BME280;49182;50.788;7.318;2023-02-12T11:55:19;103112.00;;;11.30;75.36
43125;BME280;49182;50.788;7.318;2023-02-12T11:57:47;103099.13;;;11.41;73.68
43125;BME280;49182;50.788;7.318;2023-02-12T12:00:15;103101.13;;;11.36;73.17
43125;BME280;49182;50.788;7.318;2023-02-12T12:02:49;103099.81;;;11.27;75.54
43125;BME280;49182;50.788;7.318;2023-02-12T12:05:19;103087.44;;;11.28;74.81
43125;BME280;49182;50.788;7.318;2023-02-12T12:07:47;103088.84;;;11.35;75.02
43125;BME280;49182;50.788;7.318;2023-02-12T12:10:19;103088.97;;;11.49;74.24
43125;BME280;49182;50.788;7.318;2023-02-12T12:12:47;103080.59;;;11.41;74.35
43125;BME280;49182;50.788;7.318;2023-02-12T12:15:15;103076.06;;;11.43;75.14
43125;BME280;49182;50.788;7.318;2023-02-12T12:17:43;103081.22;;;11.46;73.91
43125;BME280;49182;50.788;7.318;2023-02-12T12:20:11;103075.75;;;11.66;71.85
43125;BME280;49182;50.788;7.318;2023-02-12T12:22:42;103075.88;;;11.63;72.96
43125;BME280;49182;50.788;7.318;2023-02-12T12:25:12;103071.13;;;11.70;72.68
43125;BME280;49182;50.788;7.318;2023-02-12T12:27:44;103065.97;;;11.67;73.99
43125;BME280;49182;50.788;7.318;2023-02-12T12:30:19;103068.00;;;11.79;72.24
43125;BME280;49182;50.788;7.318;2023-02-12T12:32:47;103063.75;;;11.77;73.52
43125;BME280;49182;50.788;7.318;2023-02-12T12:35:15;103067.69;;;11.85;73.03
43125;BME280;49182;50.788;7.318;2023-02-12T12:37:43;103062.25;;;11.88;73.82
43125;BME280;49182;50.788;7.318;2023-02-12T12:40:17;103059.34;;;11.93;72.77
43125;BME280;49182;50.788;7.318;2023-02-12T12:42:54;103056.63;;;11.94;73.31
43125;BME280;49182;50.788;7.318;2023-02-12T12:45:36;103057.72;;;12.06;73.53
43125;BME280;49182;50.788;7.318;2023-02-12T12:48:11;103052.03;;;12.13;71.58
43125;BME280;49182;50.788;7.318;2023-02-12T12:50:54;103049.44;;;12.12;72.78
43125;BME280;49182;50.788;7.318;2023-02-12T12:53:27;103044.16;;;12.12;72.56
43125;BME280;49182;50.788;7.318;2023-02-12T12:56:09;103044.75;;;12.17;71.98
43125;BME280;49182;50.788;7.318;2023-02-12T12:58:45;103049.91;;;12.20;70.33
43125;BME280;49182;50.788;7.318;2023-02-12T13:01:19;103042.22;;;12.15;70.84
43125;BME280;49182;50.788;7.318;2023-02-12T13:04:05;103039.91;;;12.09;70.48
43125;BME280;49182;50.788;7.318;2023-02-12T13:06:48;103036.22;;;12.12;70.13
43125;BME280;49182;50.788;7.318;2023-02-12T13:09:21;103031.50;;;12.17;69.12
43125;BME280;49182;50.788;7.318;2023-02-12T13:11:55;103033.56;;;12.12;68.49
43125;BME280;49182;50.788;7.318;2023-02-12T13:14:30;103033.81;;;12.07;68.43
43125;BME280;49182;50.788;7.318;2023-02-12T13:17:03;103027.41;;;11.96;69.84
43125;BME280;49182;50.788;7.318;2023-02-12T13:19:36;103027.56;;;11.93;69.72
43125;BME280;49182;50.788;7.318;2023-02-12T13:22:05;103017.31;;;11.87;70.78